Time;durP1;ratioP1;P1;durP2;ratioP2;P2;SDS_P1;SDS_P2;PMS_P1;PMS_P2;Temp;Humidity;BMP_temperature;BMP_pressure;BME280_temperature;BME280_humidity;BME280_pressure;Samples;Min_cycle;Max_cycle;Signal;HPM_P1;HPM_P2
2023/05/18 00:00:26;;;;;;;12.40;3.33;;;9.30;99.90;;;;;;4008860;29;20175;-90
2023/05/18 00:02:27;;;;;;;23.53;3.73;;;9.30;99.90;;;;;;4008946;29;20258;-91
2023/05/18 00:04:29;;;;;;;16.27;3.33;;;9.40;99.90;;;;;;4035189;29;20210;-90
2023/05/18 00:06:29;;;;;;;16.47;3.77;;;9.40;99.90;;;;;;4008806;29;20195;-91
2023/05/18 00:08:30;;;;;;;19.33;3.60;;;9.30;99.90;;;;;;4008784;29;20185;-91
2023/05/18 00:10:31;;;;;;;23.43;4.10;;;9.40;99.90;;;;;;3993359;29;20572;-90
2023/05/18 00:12:32;;;;;;;19.90;4.03;;;9.70;99.90;;;;;;4008146;29;20183;-93
2023/05/18 00:14:32;;;;;;;18.67;3.83;;;9.90;99.90;;;;;;4008283;29;20231;-90
2023/05/18 00:16:33;;;;;;;16.87;4.20;;;10.00;99.90;;;;;;4008593;29;20184;-90
2023/05/18 00:18:34;;;;;;;20.27;4.30;;;10.30;99.90;;;;;;4008475;29;20256;-91
2023/05/18 00:20:35;;;;;;;17.13;4.13;;;10.10;99.90;;;;;;4023642;29;20182;-90
2023/05/18 00:22:38;;;;;;;22.03;4.53;;;10.00;99.90;;;;;;4023674;29;20178;-90
2023/05/18 00:24:38;;;;;;;20.07;4.10;;;9.80;99.90;;;;;;4008226;29;20203;-90
2023/05/18 00:26:40;;;;;;;23.37;4.70;;;10.00;99.90;;;;;;4008217;29;20637;-91
2023/05/18 00:28:41;;;;;;;19.73;3.80;;;10.00;99.90;;;;;;4008347;29;20568;-90
2023/05/18 00:30:42;;;;;;;18.63;4.33;;;10.10;99.90;;;;;;4008385;29;20175;-91
2023/05/18 00:32:43;;;;;;;17.27;4.50;;;10.00;99.90;;;;;;4008089;29;20274;-91
2023/05/18 00:34:45;;;;;;;15.97;3.90;;;9.80;99.90;;;;;;4022895;29;20218;-91
2023/05/18 00:36:46;;;;;;;19.80;4.47;;;9.70;99.90;;;;;;4022950;29;20742;-91
2023/05/18 00:38:47;;;;;;;20.73;4.70;;;9.60;99.90;;;;;;4008040;29;20171;-89
2023/05/18 00:40:48;;;;;;;17.20;3.90;;;9.50;99.90;;;;;;3992860;29;20187;-93
2023/05/18 00:42:49;;;;;;;22.13;4.57;;;9.30;99.90;;;;;;4007743;29;20186;-90
2023/05/18 00:44:50;;;;;;;18.57;4.23;;;9.40;99.90;;;;;;3992632;29;20208;-89
2023/05/18 00:46:51;;;;;;;23.90;4.57;;;9.50;99.90;;;;;;4007868;29;20182;-91
2023/05/18 00:48:55;;;;;;;14.03;4.00;;;9.30;99.90;;;;;;3992673;29;20190;-91
2023/05/18 00:50:56;;;;;;;21.70;4.47;;;9.10;99.90;;;;;;3992979;29;20262;-90
2023/05/18 00:52:57;;;;;;;20.27;3.70;;;9.20;99.90;;;;;;3992801;29;20187;-89
2023/05/18 00:54:58;;;;;;;17.90;4.23;;;9.40;99.90;;;;;;4007930;29;20672;-91
2023/05/18 00:57:00;;;;;;;19.43;4.03;;;9.40;99.90;;;;;;4007884;29;20192;-93
2023/05/18 00:59:02;;;;;;;19.03;4.03;;;9.60;99.90;;;;;;3992778;29;20244;-90
2023/05/18 01:01:04;;;;;;;17.00;3.80;;;9.60;99.90;;;;;;4007349;29;20186;-93
2023/05/18 01:03:08;;;;;;;14.00;3.70;;;9.50;99.90;;;;;;3992496;29;20672;-90
2023/05/18 01:05:10;;;;;;;13.73;3.87;;;9.40;99.90;;;;;;4007984;29;20230;-90
2023/05/18 01:07:11;;;;;;;15.80;3.80;;;9.40;99.90;;;;;;4022945;29;20194;-90
2023/05/18 01:09:13;;;;;;;19.97;3.43;;;9.50;99.90;;;;;;4007738;29;20213;-90
2023/05/18 01:11:41;;;;;;;13.57;3.40;;;9.40;99.90;;;;;;4007809;29;20229;-91
2023/05/18 01:14:18;;;;;;;18.97;3.40;;;9.30;99.90;;;;;;4007672;29;20592;-91
2023/05/18 01:16:25;;;;;;;10.63;3.33;;;9.30;99.90;;;;;;4007312;29;20190;-90
2023/05/18 01:19:01;;;;;;;20.87;4.47;;;9.40;99.90;;;;;;4007764;29;20178;-90
2023/05/18 01:21:32;;;;;;;14.53;3.67;;;9.30;99.90;;;;;;3992414;29;20602;-90
2023/05/18 01:23:59;;;;;;;19.70;3.97;;;9.10;99.90;;;;;;3992035;29;20179;-90
2023/05/18 01:26:36;;;;;;;12.60;3.27;;;9.10;99.90;;;;;;4007344;29;20199;-92
2023/05/18 01:28:37;;;;;;;15.80;3.90;;;8.70;99.90;;;;;;4007436;29;20182;-91
2023/05/18 01:30:41;;;;;;;14.80;3.57;;;8.40;99.90;;;;;;3992210;29;20175;-92
2023/05/18 01:32:45;;;;;;;14.80;3.57;;;8.60;99.90;;;;;;4007345;29;20175;-89
2023/05/18 01:34:49;;;;;;;14.63;3.03;;;8.90;99.90;;;;;;3992096;29;20249;-90
2023/05/18 01:36:50;;;;;;;19.33;3.63;;;8.90;99.90;;;;;;4007158;29;20251;-91
2023/05/18 01:38:52;;;;;;;16.60;3.70;;;9.00;99.90;;;;;;4007258;29;20175;-89
2023/05/18 01:41:10;;;;;;;16.40;3.60;;;9.00;99.90;;;;;;4007297;29;20171;-90
2023/05/18 01:43:17;;;;;;;16.53;3.60;;;8.90;99.90;;;;;;4006660;29;20709;-90
2023/05/18 01:45:24;;;;;;;22.63;3.77;;;8.80;99.90;;;;;;4006974;29;20209;-93
2023/05/18 01:47:29;;;;;;;18.97;3.63;;;8.80;99.90;;;;;;4007295;29;20286;-89
2023/05/18 01:49:44;;;;;;;16.67;3.67;;;9.00;99.90;;;;;;4007211;29;20186;-90
2023/05/18 01:51:47;;;;;;;15.83;3.17;;;9.10;99.90;;;;;;4022424;29;20666;-91
2023/05/18 01:54:04;;;;;;;17.00;4.37;;;8.90;99.90;;;;;;4007053;29;20605;-90
2023/05/18 01:56:07;;;;;;;23.03;4.00;;;9.10;99.90;;;;;;4007201;29;20186;-91
2023/05/18 01:58:11;;;;;;;15.73;3.57;;;9.10;99.90;;;;;;4007145;29;20179;-90
2023/05/18 02:00:12;;;;;;;15.53;3.90;;;9.10;99.90;;;;;;4006934;29;20677;-91
2023/05/18 02:02:21;;;;;;;13.70;3.50;;;9.00;99.90;;;;;;3992615;29;20187;-90
2023/05/18 02:04:21;;;;;;;17.13;3.83;;;8.90;99.90;;;;;;4007015;29;20175;-91
2023/05/18 02:06:22;;;;;;;15.17;3.53;;;9.10;99.90;;;;;;4007058;29;20286;-90
2023/05/18 02:08:23;;;;;;;15.07;3.93;;;8.90;99.90;;;;;;4007008;29;20377;-90
2023/05/18 02:10:24;;;;;;;23.10;3.73;;;9.00;99.90;;;;;;3991957;29;20649;-91
2023/05/18 02:12:25;;;;;;;20.70;4.00;;;8.80;99.90;;;;;;4006907;29;20203;-90
2023/05/18 02:14:26;;;;;;;18.33;3.47;;;8.70;99.90;;;;;;4006755;29;20222;-90
2023/05/18 02:16:27;;;;;;;15.97;3.73;;;8.80;99.90;;;;;;4022237;29;20564;-90
2023/05/18 02:18:27;;;;;;;21.17;4.00;;;8.80;99.90;;;;;;4006837;29;20217;-91
2023/05/18 02:20:32;;;;;;;15.53;3.50;;;8.70;99.90;;;;;;4022051;29;20242;-92
2023/05/18 02:22:33;;;;;;;12.97;3.67;;;8.70;99.90;;;;;;3992043;29;20182;-90
2023/05/18 02:24:34;;;;;;;13.50;3.10;;;8.80;99.90;;;;;;4022123;29;20217;-92
2023/05/18 02:26:37;;;;;;;13.53;3.30;;;8.60;99.90;;;;;;3991711;29;20187;-90
2023/05/18 02:28:38;;;;;;;19.07;3.40;;;8.60;99.90;;;;;;4006977;29;20263;-93
2023/05/18 02:30:40;;;;;;;14.90;3.30;;;8.60;99.90;;;;;;3993731;29;20186;-91
2023/05/18 02:32:41;;;;;;;19.90;3.83;;;8.60;99.90;;;;;;4016416;29;20171;-90
2023/05/18 02:34:42;;;;;;;11.43;3.30;;;8.60;99.90;;;;;;4009250;29;20236;-89
2023/05/18 02:36:44;;;;;;;15.13;3.57;;;8.50;99.90;;;;;;4008855;29;20212;-90
2023/05/18 02:38:45;;;;;;;15.33;3.97;;;8.50;99.90;;;;;;4007017;29;20205;-90
2023/05/18 02:40:47;;;;;;;17.30;3.43;;;8.40;99.90;;;;;;4006764;29;20540;-90
2023/05/18 02:42:49;;;;;;;13.93;3.40;;;8.40;99.90;;;;;;3991821;29;20176;-90
2023/05/18 02:44:50;;;;;;;17.27;3.90;;;8.50;99.90;;;;;;4022245;29;20198;-90
2023/05/18 02:46:51;;;;;;;14.60;4.00;;;8.40;99.90;;;;;;3991730;29;20190;-94
2023/05/18 02:48:52;;;;;;;15.67;3.53;;;8.40;99.90;;;;;;4006680;29;20616;-90
2023/05/18 02:50:53;;;;;;;19.57;3.97;;;8.40;99.90;;;;;;3991801;29;20176;-93
2023/05/18 02:52:54;;;;;;;12.60;3.57;;;8.40;99.90;;;;;;3991819;29;20192;-90
2023/05/18 02:54:55;;;;;;;12.97;3.23;;;8.40;99.90;;;;;;4007085;29;20294;-90
2023/05/18 02:57:10;;;;;;;15.67;3.60;;;8.40;99.90;;;;;;4009613;29;20213;-90
2023/05/18 02:59:26;;;;;;;16.57;3.80;;;8.40;99.90;;;;;;4011310;29;20206;-90
2023/05/18 03:01:26;;;;;;;15.90;3.30;;;8.40;99.90;;;;;;4009498;29;20187;-90
2023/05/18 03:03:28;;;;;;;14.33;5.00;;;8.30;99.90;;;;;;4009767;29;20212;-89
2023/05/18 03:05:28;;;;;;;18.90;3.73;;;8.30;99.90;;;;;;3993801;29;20214;-90
2023/05/18 03:07:31;;;;;;;14.13;3.30;;;8.30;99.90;;;;;;4009301;29;20175;-90
2023/05/18 03:09:33;;;;;;;14.93;3.73;;;8.30;99.90;;;;;;3994253;29;20187;-89
2023/05/18 03:11:34;;;;;;;16.90;3.63;;;8.20;99.90;;;;;;4009236;29;20259;-90
2023/05/18 03:13:35;;;;;;;14.67;3.83;;;8.10;99.90;;;;;;3994048;29;20223;-90
2023/05/18 03:15:36;;;;;;;26.50;3.70;;;8.20;99.90;;;;;;4009381;29;20199;-91
2023/05/18 03:17:37;;;;;;;21.03;3.97;;;8.10;99.90;;;;;;4024706;29;20188;-90
2023/05/18 03:19:38;;;;;;;14.30;3.73;;;8.10;99.90;;;;;;4009330;29;20189;-90
2023/05/18 03:21:39;;;;;;;17.57;3.77;;;8.20;99.90;;;;;;4009408;29;20645;-90
2023/05/18 03:23:40;;;;;;;14.70;3.70;;;8.20;99.90;;;;;;4024488;29;20657;-90
2023/05/18 03:25:42;;;;;;;19.93;4.37;;;8.10;99.90;;;;;;4024265;29;20206;-89
2023/05/18 03:27:42;;;;;;;16.23;3.63;;;8.20;99.90;;;;;;4009032;29;20175;-91
2023/05/18 03:29:44;;;;;;;15.67;3.50;;;8.10;99.90;;;;;;4009035;29;20261;-90
2023/05/18 03:31:46;;;;;;;24.20;3.53;;;8.00;99.90;;;;;;4008961;29;20213;-89
2023/05/18 03:33:48;;;;;;;20.00;4.27;;;8.00;99.90;;;;;;4009083;29;20223;-93
2023/05/18 03:35:51;;;;;;;15.23;3.57;;;8.00;99.90;;;;;;4008899;29;20203;-89
2023/05/18 03:37:51;;;;;;;11.90;4.07;;;7.90;99.90;;;;;;4024408;29;20559;-93
2023/05/18 03:39:52;;;;;;;15.47;3.87;;;8.00;99.90;;;;;;3993747;29;20211;-89
2023/05/18 03:41:54;;;;;;;14.60;3.90;;;8.00;99.90;;;;;;3993979;29;20246;-90
2023/05/18 03:43:55;;;;;;;17.40;3.60;;;7.90;99.90;;;;;;4009046;29;20186;-90
2023/05/18 03:45:56;;;;;;;14.60;3.43;;;8.00;99.90;;;;;;4009004;29;20317;-89
2023/05/18 03:47:57;;;;;;;16.47;3.57;;;8.00;99.90;;;;;;3993686;29;20183;-90
2023/05/18 03:49:59;;;;;;;19.03;3.97;;;8.00;99.90;;;;;;4008916;29;20179;-93
2023/05/18 03:52:02;;;;;;;16.80;4.33;;;8.00;99.90;;;;;;4023979;29;20202;-91
2023/05/18 03:54:04;;;;;;;10.50;3.57;;;8.00;99.90;;;;;;3993797;29;20219;-93
2023/05/18 03:56:05;;;;;;;14.70;3.57;;;8.00;99.90;;;;;;4008542;29;20217;-91
2023/05/18 03:58:05;;;;;;;23.47;4.30;;;8.00;99.90;;;;;;3993251;29;20721;-90
2023/05/18 04:00:11;;;;;;;12.17;3.80;;;8.00;99.90;;;;;;4023869;29;20182;-89
2023/05/18 04:02:17;;;;;;;21.83;4.30;;;8.10;99.90;;;;;;4009535;29;20716;-89
2023/05/18 04:04:22;;;;;;;17.53;4.10;;;8.10;99.90;;;;;;4008523;29;20207;-90
2023/05/18 04:06:24;;;;;;;24.03;4.30;;;8.00;99.90;;;;;;4008074;29;20240;-93
2023/05/18 04:08:25;;;;;;;17.83;3.80;;;8.10;99.90;;;;;;4008467;29;20698;-90
2023/05/18 04:10:26;;;;;;;18.83;4.20;;;8.20;99.90;;;;;;4024017;29;20170;-93
2023/05/18 04:12:27;;;;;;;13.97;3.87;;;8.10;99.90;;;;;;3993366;29;20228;-90
2023/05/18 04:14:28;;;;;;;10.70;3.50;;;8.20;99.90;;;;;;4008306;29;20238;-90
2023/05/18 04:16:28;;;;;;;15.87;4.67;;;8.10;99.90;;;;;;4008375;29;20266;-91
2023/05/18 04:18:30;;;;;;;19.53;3.90;;;8.10;99.90;;;;;;4008123;29;20187;-90
2023/05/18 04:20:31;;;;;;;19.03;3.77;;;8.20;99.90;;;;;;4008252;29;20206;-91
2023/05/18 04:22:35;;;;;;;16.00;4.00;;;8.20;99.90;;;;;;4008735;29;20178;-93
2023/05/18 04:24:36;;;;;;;15.67;4.00;;;8.10;99.90;;;;;;4008481;29;20202;-93
2023/05/18 04:26:37;;;;;;;21.93;4.63;;;8.00;99.90;;;;;;4023885;29;20197;-90
2023/05/18 04:28:38;;;;;;;21.53;4.37;;;8.20;99.90;;;;;;4008612;29;20174;-91
2023/05/18 04:30:38;;;;;;;20.33;4.33;;;8.30;99.90;;;;;;4023959;29;20182;-91
2023/05/18 04:32:41;;;;;;;17.07;4.43;;;8.20;99.90;;;;;;4008381;29;20258;-89
2023/05/18 04:34:42;;;;;;;16.90;4.23;;;8.20;99.90;;;;;;4008368;29;20222;-92
2023/05/18 04:36:45;;;;;;;12.03;4.17;;;8.20;99.90;;;;;;4008134;29;20269;-90
2023/05/18 04:38:46;;;;;;;14.43;4.13;;;8.10;99.90;;;;;;4008182;29;20274;-90
2023/05/18 04:40:47;;;;;;;13.43;4.20;;;8.10;99.90;;;;;;4008119;29;20194;-90
2023/05/18 04:42:48;;;;;;;14.40;4.33;;;8.10;99.90;;;;;;4016876;29;20174;-90
2023/05/18 04:44:53;;;;;;;16.90;3.90;;;8.10;99.90;;;;;;4008263;29;20203;-90
2023/05/18 04:46:55;;;;;;;14.90;4.37;;;8.20;99.90;;;;;;4023078;29;20182;-90
2023/05/18 04:48:56;;;;;;;15.43;4.60;;;8.20;99.90;;;;;;4023155;29;20637;-89
2023/05/18 04:50:57;;;;;;;18.13;4.67;;;8.20;99.90;;;;;;4008175;29;20664;-90
2023/05/18 04:53:00;;;;;;;12.70;3.70;;;8.20;99.90;;;;;;4023393;29;20186;-90
2023/05/18 04:55:02;;;;;;;17.73;4.53;;;8.10;99.90;;;;;;4022981;29;20251;-90
2023/05/18 04:57:04;;;;;;;15.83;4.40;;;8.20;99.90;;;;;;4007890;29;20183;-90
2023/05/18 04:59:04;;;;;;;17.80;4.20;;;8.30;99.90;;;;;;4009500;29;20214;-90
2023/05/18 05:01:06;;;;;;;18.50;4.47;;;8.40;99.90;;;;;;4000389;29;20155;-90
2023/05/18 05:03:07;;;;;;;16.50;5.13;;;8.50;99.90;;;;;;4012279;29;20206;-88
2023/05/18 05:05:08;;;;;;;15.07;4.00;;;8.60;99.90;;;;;;4012584;29;20680;-90
2023/05/18 05:07:09;;;;;;;16.03;4.33;;;8.60;99.90;;;;;;4007774;29;20194;-89
2023/05/18 05:09:12;;;;;;;16.50;4.13;;;8.50;99.90;;;;;;3993280;29;20205;-89
2023/05/18 05:11:13;;;;;;;12.40;4.37;;;8.50;99.90;;;;;;3992624;29;20184;-89
2023/05/18 05:13:14;;;;;;;19.87;4.70;;;8.40;99.90;;;;;;3992783;29;20245;-88
2023/05/18 05:15:16;;;;;;;14.63;3.97;;;8.50;99.90;;;;;;4007799;29;20668;-89
2023/05/18 05:17:16;;;;;;;21.93;4.57;;;8.60;99.90;;;;;;3992910;29;20179;-89
2023/05/18 05:19:17;;;;;;;11.50;4.27;;;8.60;99.90;;;;;;4007118;29;20189;-89
2023/05/18 05:21:18;;;;;;;12.23;4.37;;;8.60;99.90;;;;;;3992493;29;20176;-88
2023/05/18 05:23:19;;;;;;;17.03;4.47;;;8.70;99.90;;;;;;4007705;29;20183;-89
2023/05/18 05:25:20;;;;;;;19.40;4.80;;;8.80;99.90;;;;;;3992745;29;20188;-89
2023/05/18 05:27:22;;;;;;;13.57;4.63;;;8.70;99.90;;;;;;3992322;29;20669;-88
2023/05/18 05:29:25;;;;;;;15.70;5.30;;;8.60;99.90;;;;;;4007064;29;20179;-89
2023/05/18 05:31:26;;;;;;;14.63;4.57;;;8.50;99.90;;;;;;4022816;29;20177;-88
2023/05/18 05:33:26;;;;;;;14.53;4.77;;;8.40;99.90;;;;;;3993059;29;20298;-92
2023/05/18 05:35:27;;;;;;;24.53;5.43;;;8.30;99.90;;;;;;4022551;29;20209;-88
2023/05/18 05:37:28;;;;;;;16.03;4.80;;;8.20;99.90;;;;;;4007488;29;20208;-89
2023/05/18 05:39:29;;;;;;;15.27;4.60;;;8.10;99.90;;;;;;4007226;29;20182;-89
2023/05/18 05:41:30;;;;;;;20.60;5.17;;;8.10;99.90;;;;;;3992792;29;20175;-88
2023/05/18 05:43:31;;;;;;;15.13;4.97;;;8.10;99.90;;;;;;4022268;29;20281;-88
2023/05/18 05:45:32;;;;;;;11.93;5.17;;;8.10;99.90;;;;;;3992022;29;20195;-89
2023/05/18 05:47:36;;;;;;;20.73;4.63;;;8.20;99.90;;;;;;4007386;29;20175;-88
2023/05/18 05:49:37;;;;;;;18.57;4.83;;;8.20;99.90;;;;;;4007135;29;20257;-89
2023/05/18 05:51:38;;;;;;;17.27;5.17;;;8.30;99.90;;;;;;4007355;29;20239;-96
2023/05/18 05:53:39;;;;;;;14.70;5.47;;;8.30;99.90;;;;;;4022280;29;20241;-94
2023/05/18 05:55:40;;;;;;;13.77;5.40;;;8.40;99.90;;;;;;4007299;29;20203;-88
2023/05/18 05:57:44;;;;;;;12.97;4.60;;;8.50;99.90;;;;;;3993159;29;20549;-89
2023/05/18 05:59:45;;;;;;;17.30;5.07;;;8.50;99.90;;;;;;4022307;29;20209;-89
2023/05/18 06:01:46;;;;;;;16.93;5.50;;;8.50;99.90;;;;;;4007096;29;20517;-89
2023/05/18 06:03:47;;;;;;;13.13;5.17;;;8.60;99.90;;;;;;4022505;29;20179;-89
2023/05/18 06:05:48;;;;;;;17.30;5.60;;;8.50;99.90;;;;;;4007196;29;20703;-93
2023/05/18 06:07:52;;;;;;;16.80;5.60;;;8.60;99.90;;;;;;4022610;29;20612;-89
2023/05/18 06:09:53;;;;;;;16.17;5.13;;;8.60;99.90;;;;;;4022596;29;20181;-89
2023/05/18 06:11:54;;;;;;;18.77;6.00;;;8.60;99.90;;;;;;4007355;29;20185;-89
2023/05/18 06:13:55;;;;;;;16.07;5.00;;;8.60;99.90;;;;;;4006913;29;20710;-88
2023/05/18 06:15:57;;;;;;;12.43;4.83;;;8.60;99.90;;;;;;3991967;29;20203;-89
2023/05/18 06:17:58;;;;;;;12.40;5.20;;;8.60;99.90;;;;;;4022707;29;20269;-88
2023/05/18 06:19:59;;;;;;;19.60;5.90;;;8.50;99.90;;;;;;3992263;29;20184;-90
2023/05/18 06:22:00;;;;;;;17.97;5.23;;;8.60;99.90;;;;;;4022040;29;20174;-88
2023/05/18 06:24:05;;;;;;;17.27;5.47;;;8.60;99.90;;;;;;4022104;29;20282;-89
2023/05/18 06:26:08;;;;;;;16.93;4.70;;;8.80;99.90;;;;;;4007753;29;20170;-89
2023/05/18 06:28:36;;;;;;;17.87;5.17;;;8.90;99.90;;;;;;3995340;29;20207;-88
2023/05/18 06:30:59;;;;;;;21.03;5.27;;;9.10;99.90;;;;;;4011387;29;20192;-89
2023/05/18 06:33:20;;;;;;;22.20;5.27;;;9.20;99.90;;;;;;4012611;29;20189;-89
2023/05/18 06:35:21;;;;;;;17.27;5.13;;;9.20;99.90;;;;;;4010728;29;20202;-89
2023/05/18 06:37:22;;;;;;;16.83;4.97;;;9.30;99.90;;;;;;4009795;29;20213;-89
2023/05/18 06:39:22;;;;;;;23.60;5.60;;;9.40;99.90;;;;;;3995484;29;20179;-88
2023/05/18 06:41:23;;;;;;;23.43;6.00;;;9.50;99.90;;;;;;4010184;29;20175;-88
2023/05/18 06:43:25;;;;;;;20.20;5.37;;;9.40;99.90;;;;;;3995315;29;20660;-92
2023/05/18 06:45:32;;;;;;;18.63;5.37;;;9.50;99.90;;;;;;4010006;29;20229;-89
2023/05/18 06:47:44;;;;;;;15.77;5.30;;;9.60;99.90;;;;;;4011460;29;20175;-89
2023/05/18 06:49:45;;;;;;;12.80;4.90;;;9.80;99.90;;;;;;4009985;29;20218;-89
2023/05/18 06:51:46;;;;;;;18.03;5.47;;;9.80;99.90;;;;;;4009779;29;20637;-89
2023/05/18 06:53:47;;;;;;;18.60;5.43;;;9.80;99.90;;;;;;3994804;29;20211;-89
2023/05/18 06:55:48;;;;;;;20.20;5.83;;;9.70;99.90;;;;;;4010118;29;20290;-89
2023/05/18 06:57:50;;;;;;;18.40;4.67;;;10.00;99.90;;;;;;4010564;29;20187;-89
2023/05/18 06:59:52;;;;;;;13.10;4.70;;;10.10;99.90;;;;;;4010033;29;20179;-95
2023/05/18 07:01:53;;;;;;;17.30;4.70;;;10.30;99.90;;;;;;4025079;29;20213;-88
2023/05/18 07:03:54;;;;;;;17.57;5.20;;;10.50;99.90;;;;;;4009547;29;20183;-89
2023/05/18 07:05:55;;;;;;;18.03;5.60;;;10.60;99.90;;;;;;4024642;29;20261;-89
2023/05/18 07:07:56;;;;;;;14.37;5.37;;;10.40;99.90;;;;;;3996093;29;20176;-89
2023/05/18 07:09:57;;;;;;;16.40;4.70;;;10.50;99.90;;;;;;4010734;29;20182;-90
2023/05/18 07:11:58;;;;;;;18.43;5.30;;;11.00;99.90;;;;;;4010590;29;20178;-90
2023/05/18 07:13:59;;;;;;;15.48;4.40;;;11.80;99.90;;;;;;4024286;29;20703;-89
2023/05/18 07:16:00;;;;;;;14.45;4.55;;;12.70;99.90;;;;;;4010004;29;20285;-90
2023/05/18 07:18:00;;;;;;;16.30;4.18;;;12.90;99.90;;;;;;3994708;29;20188;-90
2023/05/18 07:20:04;;;;;;;14.38;4.72;;;13.50;99.90;;;;;;4025539;29;20257;-96
2023/05/18 07:22:06;;;;;;;17.23;4.57;;;13.50;99.90;;;;;;4024867;29;20178;-90
2023/05/18 07:24:07;;;;;;;12.88;5.53;;;13.40;99.90;;;;;;4010067;29;20297;-90
2023/05/18 07:26:09;;;;;;;10.88;3.83;;;13.80;99.90;;;;;;4010066;29;20195;-89
2023/05/18 07:28:10;;;;;;;18.83;4.20;;;14.30;99.90;;;;;;4010162;29;20187;-90
2023/05/18 07:30:11;;;;;;;11.75;3.90;;;14.90;99.90;;;;;;4009809;29;20311;-89
2023/05/18 07:32:12;;;;;;;11.10;3.15;;;15.50;99.90;;;;;;3994212;29;20190;-91
2023/05/18 07:34:13;;;;;;;14.15;3.38;;;15.20;99.90;;;;;;4009679;29;20223;-91
2023/05/18 07:36:14;;;;;;;13.88;3.80;;;15.30;99.90;;;;;;3994181;29;20175;-90
2023/05/18 07:38:15;;;;;;;19.20;3.63;;;16.60;99.90;;;;;;3994556;29;20230;-90
2023/05/18 07:40:16;;;;;;;14.57;3.80;;;17.10;99.90;;;;;;3994766;29;20297;-90
2023/05/18 07:42:17;;;;;;;10.30;3.28;;;17.60;99.90;;;;;;4008161;29;20179;-90
2023/05/18 07:44:17;;;;;;;18.50;4.65;;;18.00;99.90;;;;;;3994363;29;20697;-90
2023/05/18 07:46:19;;;;;;;9.13;3.40;;;17.80;99.90;;;;;;4024987;29;20614;-93
2023/05/18 07:48:19;;;;;;;14.40;3.80;;;17.40;99.90;;;;;;4009095;29;20183;-89
2023/05/18 07:50:21;;;;;;;18.33;4.03;;;16.90;99.90;;;;;;4009143;29;20751;-90
2023/05/18 07:52:22;;;;;;;13.00;4.05;;;16.50;99.90;;;;;;4008965;29;20175;-89
2023/05/18 07:54:23;;;;;;;15.70;4.60;;;16.20;99.90;;;;;;4024147;29;20307;-90
2023/05/18 07:56:24;;;;;;;13.05;4.03;;;16.30;99.90;;;;;;3994502;29;20187;-89
2023/05/18 07:58:25;;;;;;;15.20;3.85;;;16.50;99.90;;;;;;3994212;29;20556;-89
2023/05/18 08:00:27;;;;;;;18.55;4.07;;;16.40;99.90;;;;;;4009210;29;20281;-93
2023/05/18 08:02:28;;;;;;;13.68;4.15;;;16.10;99.90;;;;;;4008589;29;20235;-90
2023/05/18 08:04:28;;;;;;;10.38;3.65;;;16.30;99.90;;;;;;4009145;29;20680;-89
2023/05/18 08:06:30;;;;;;;14.50;4.40;;;16.40;99.90;;;;;;4009309;29;20250;-89
2023/05/18 08:08:31;;;;;;;14.52;3.78;;;16.50;99.90;;;;;;4010098;29;20178;-89
2023/05/18 08:10:32;;;;;;;14.48;4.00;;;16.50;99.90;;;;;;3993583;29;20167;-90
2023/05/18 08:12:33;;;;;;;15.07;4.15;;;16.50;99.90;;;;;;4009503;29;20179;-90
2023/05/18 08:14:33;;;;;;;18.65;4.10;;;16.60;99.90;;;;;;4008517;29;20223;-90
2023/05/18 08:16:36;;;;;;;14.13;4.50;;;17.10;99.90;;;;;;4025487;29;20188;-92
2023/05/18 08:18:37;;;;;;;17.17;3.55;;;17.60;99.90;;;;;;4025454;29;20269;-89
2023/05/18 08:20:38;;;;;;;12.18;3.80;;;18.20;99.90;;;;;;4008531;29;20179;-90
2023/05/18 08:22:39;;;;;;;14.10;4.10;;;18.60;99.90;;;;;;4024042;29;20182;-89
2023/05/18 08:24:40;;;;;;;10.98;3.80;;;18.50;99.90;;;;;;4009028;29;20289;-91
2023/05/18 08:26:40;;;;;;;12.60;3.90;;;18.50;99.90;;;;;;4008791;29;20247;-90
2023/05/18 08:28:41;;;;;;;19.27;4.35;;;18.50;99.90;;;;;;4008933;29;20186;-89
2023/05/18 08:30:42;;;;;;;10.77;3.75;;;18.60;99.90;;;;;;4009731;29;20183;-95
2023/05/18 08:32:43;;;;;;;14.35;4.00;;;18.80;99.90;;;;;;4009133;29;20267;-89
2023/05/18 08:34:43;;;;;;;11.35;3.92;;;18.60;99.90;;;;;;4023627;29;20214;-91
2023/05/18 08:36:44;;;;;;;17.48;4.22;;;18.90;99.90;;;;;;4008653;29;20187;-95
2023/05/18 08:38:45;;;;;;;15.77;4.65;;;18.50;99.90;;;;;;3993540;29;20182;-89
2023/05/18 08:40:55;;;;;;;16.15;3.72;;;18.70;99.90;;;;;;4023646;29;20178;-89
2023/05/18 08:43:20;;;;;;;14.38;3.97;;;18.90;99.90;;;;;;4010201;29;20191;-90
2023/05/18 08:45:32;;;;;;;15.50;4.38;;;18.90;99.90;;;;;;4009838;29;20277;-90
2023/05/18 08:47:35;;;;;;;14.45;3.95;;;18.60;99.90;;;;;;4008354;29;20225;-89
2023/05/18 08:49:36;;;;;;;14.40;4.03;;;18.60;99.90;;;;;;4009823;29;20179;-90
2023/05/18 08:51:37;;;;;;;11.63;4.25;;;18.50;99.90;;;;;;4009717;29;20648;-91
2023/05/18 08:53:38;;;;;;;16.17;4.43;;;18.30;99.90;;;;;;4024502;29;20206;-89
2023/05/18 08:55:41;;;;;;;12.80;4.07;;;18.20;99.90;;;;;;4008332;29;20203;-90
2023/05/18 08:57:42;;;;;;;18.13;4.47;;;18.20;99.90;;;;;;4009486;29;20179;-88
2023/05/18 08:59:43;;;;;;;12.32;3.83;;;18.00;99.90;;;;;;4024539;29;20179;-90
2023/05/18 09:01:45;;;;;;;15.82;4.20;;;18.20;99.90;;;;;;4008158;29;20199;-90
2023/05/18 09:03:48;;;;;;;13.30;4.00;;;18.30;99.90;;;;;;4008373;29;20183;-90
2023/05/18 09:05:51;;;;;;;16.08;4.00;;;18.20;99.90;;;;;;4007721;29;20247;-90
2023/05/18 09:07:54;;;;;;;12.98;4.35;;;17.80;99.90;;;;;;4008386;29;20171;-89
2023/05/18 09:09:57;;;;;;;10.30;3.50;;;17.60;99.90;;;;;;4007524;29;20179;-90
2023/05/18 09:11:58;;;;;;;17.77;4.38;;;17.80;99.90;;;;;;4009319;29;20179;-89
2023/05/18 09:14:00;;;;;;;14.85;3.95;;;18.20;99.90;;;;;;3992857;29;20302;-90
2023/05/18 09:16:00;;;;;;;17.42;4.15;;;18.50;99.90;;;;;;4008285;29;20290;-90
2023/05/18 09:18:02;;;;;;;18.25;3.53;;;18.80;99.90;;;;;;4008025;29;20179;-90
2023/05/18 09:20:07;;;;;;;14.43;3.53;;;18.80;99.90;;;;;;3993449;29;20179;-90
2023/05/18 09:22:08;;;;;;;15.05;3.90;;;18.30;99.90;;;;;;3993443;29;20204;-90
2023/05/18 09:24:10;;;;;;;11.35;3.30;;;18.00;99.90;;;;;;4009401;29;20206;-90
2023/05/18 09:26:12;;;;;;;13.88;3.67;;;17.90;99.90;;;;;;4008699;29;20209;-90
2023/05/18 09:28:13;;;;;;;14.95;3.20;;;17.80;99.90;;;;;;4022929;29;20178;-89
2023/05/18 09:30:14;;;;;;;11.98;3.03;;;17.80;99.90;;;;;;4007740;29;20571;-89
2023/05/18 09:32:15;;;;;;;13.55;3.00;;;17.80;99.90;;;;;;4038934;29;20175;-90
2023/05/18 09:34:18;;;;;;;11.93;3.10;;;17.30;99.90;;;;;;4008528;29;20256;-90
2023/05/18 09:36:24;;;;;;;16.77;3.03;;;17.10;99.90;;;;;;4007898;29;20171;-88
2023/05/18 09:38:27;;;;;;;15.50;3.17;;;17.10;99.90;;;;;;4007976;29;20187;-95
2023/05/18 09:40:28;;;;;;;12.52;2.78;;;17.30;99.90;;;;;;4007134;29;20572;-89
2023/05/18 09:42:40;;;;;;;19.55;3.83;;;17.50;99.90;;;;;;4008419;29;20182;-90
2023/05/18 09:44:41;;;;;;;12.43;3.33;;;17.40;99.90;;;;;;4007445;29;20183;-89
2023/05/18 09:46:41;;;;;;;18.52;3.80;;;17.20;99.90;;;;;;3992697;29;20566;-89
2023/05/18 09:48:50;;;;;;;10.27;3.10;;;17.10;99.90;;;;;;4022314;29;20174;-90
2023/05/18 09:50:51;;;;;;;10.93;3.20;;;17.10;99.90;;;;;;4007823;29;20194;-90
2023/05/18 09:52:53;;;;;;;10.77;2.25;;;17.30;99.90;;;;;;3992834;29;20176;-89
2023/05/18 09:54:59;;;;;;;11.40;2.45;;;17.50;99.90;;;;;;4001835;29;20687;-89
2023/05/18 09:57:02;;;;;;;9.48;2.70;;;17.50;99.90;;;;;;4007674;29;20206;-90
2023/05/18 09:59:10;;;;;;;12.15;3.38;;;17.40;99.90;;;;;;4007680;29;20227;-90
2023/05/18 10:01:14;;;;;;;15.05;3.25;;;17.20;99.90;;;;;;4008459;29;20173;-90
2023/05/18 10:03:20;;;;;;;11.25;3.05;;;17.00;99.90;;;;;;4006952;29;20278;-90
2023/05/18 10:05:22;;;;;;;14.25;3.15;;;16.80;99.90;;;;;;4007072;29;20258;-89
2023/05/18 10:07:23;;;;;;;11.98;3.17;;;17.00;99.90;;;;;;4007214;29;20243;-89
2023/05/18 10:09:24;;;;;;;10.85;2.63;;;16.90;99.90;;;;;;3992992;29;20316;-89
2023/05/18 10:11:26;;;;;;;13.75;3.10;;;16.80;99.90;;;;;;4007118;29;20253;-89
2023/05/18 10:13:30;;;;;;;14.57;3.15;;;16.70;99.90;;;;;;4006966;29;20178;-89
2023/05/18 10:15:32;;;;;;;15.70;3.65;;;16.90;99.90;;;;;;3993723;29;20207;-90
2023/05/18 10:17:33;;;;;;;14.48;3.83;;;17.00;99.90;;;;;;4008096;29;20182;-88
2023/05/18 10:19:38;;;;;;;10.05;3.55;;;16.90;99.90;;;;;;3993131;29;20203;-89
2023/05/18 10:21:41;;;;;;;12.00;3.03;;;16.90;99.90;;;;;;4006764;29;20185;-90
2023/05/18 10:23:46;;;;;;;12.68;3.40;;;16.70;99.90;;;;;;4007459;29;20186;-90
2023/05/18 10:25:49;;;;;;;12.27;3.00;;;16.40;99.90;;;;;;4007523;29;20202;-89
2023/05/18 10:27:56;;;;;;;19.65;3.70;;;16.20;99.90;;;;;;4007001;29;20183;-88
2023/05/18 10:29:57;;;;;;;14.88;3.10;;;16.10;99.90;;;;;;4006797;29;20171;-90
2023/05/18 10:32:02;;;;;;;12.07;3.35;;;16.00;99.90;;;;;;4022747;29;20236;-89
2023/05/18 10:34:03;;;;;;;12.43;3.10;;;16.00;99.90;;;;;;4007188;29;20218;-89
2023/05/18 10:36:05;;;;;;;9.30;2.72;;;16.00;99.90;;;;;;4007178;29;20194;-89